Dr.Michael Heilos
Wetterdaten: aktuell Sonntag, 26.03.2023 16:40
Datum Zeit Temp. A. Feuchte A. Luftdruck Regen Wind Richtung Richtung Sonnenschein Solar Windchill Windben
26.03.2023 16:40 7,4 C 58 % 1003,7 hPa 0,0 l/m 2,5 km/h (1 Bft) O-SO 121 10 min 162 W/m 7,4 C 6,4 km/h (2 Bft)
26.03.2023 16:30 7,3 C 58 % 1003,7 hPa 0,0 l/m 3,5 km/h (1 Bft) O 88 10 min 172 W/m 7,3 C 8,0 km/h (2 Bft)
26.03.2023 16:20 7,4 C 58 % 1003,7 hPa 0,2 l/m 2,3 km/h (1 Bft) SO 131 10 min 172 W/m 7,4 C 6,4 km/h (2 Bft)
26.03.2023 16:10 7,3 C 58 % 1003,7 hPa 0,0 l/m 2,9 km/h (1 Bft) S-SW 207 10 min 167 W/m 7,3 C 6,4 km/h (2 Bft)
26.03.2023 16:00 7,3 C 59 % 1003,7 hPa 0,0 l/m 2,1 km/h (1 Bft) O-SO 118 10 min 153 W/m 7,3 C 8,0 km/h (2 Bft)
26.03.2023 15:50 7,4 C 59 % 1003,8 hPa 0,2 l/m 2,9 km/h (1 Bft) S-SO 168 0 min 135 W/m 7,4 C 9,7 km/h (2 Bft)
26.03.2023 15:40 7,4 C 58 % 1003,8 hPa 0,2 l/m 1,8 km/h (1 Bft) O-SO 122 0 min 121 W/m 7,4 C 4,8 km/h (1 Bft)
26.03.2023 15:30 7,4 C 58 % 1003,8 hPa 0,2 l/m 2,4 km/h (1 Bft) SO 128 0 min 118 W/m 7,4 C 8,0 km/h (2 Bft)
26.03.2023 15:20 7,7 C 58 % 1003,8 hPa 0,0 l/m 3,2 km/h (1 Bft) SO 145 0 min 123 W/m 7,7 C 6,4 km/h (2 Bft)
26.03.2023 15:10 7,7 C 58 % 1003,9 hPa 0,2 l/m 2,3 km/h (1 Bft) O-SO 113 0 min 137 W/m 7,7 C 4,8 km/h (1 Bft)
26.03.2023 15:00 7,6 C 58 % 1003,9 hPa 0,2 l/m 2,5 km/h (1 Bft) O-SO 120 0 min 123 W/m 7,6 C 9,7 km/h (2 Bft)
26.03.2023 14:50 7,8 C 58 % 1003,9 hPa 0,2 l/m 2,5 km/h (1 Bft) O-SO 116 0 min 109 W/m 7,8 C 9,7 km/h (2 Bft)
26.03.2023 14:40 7,9 C 58 % 1004,0 hPa 0,2 l/m 2,1 km/h (1 Bft) SO 131 0 min 109 W/m 7,9 C 6,4 km/h (2 Bft)
26.03.2023 14:30 8,1 C 58 % 1004,0 hPa 0,0 l/m 1,7 km/h (1 Bft) SO 132 0 min 114 W/m 8,1 C 6,4 km/h (2 Bft)
26.03.2023 14:20 8,1 C 58 % 1004,2 hPa 0,2 l/m 1,1 km/h (1 Bft) SO 136 0 min 116 W/m 8,1 C 4,8 km/h (1 Bft)
26.03.2023 14:10 8,1 C 58 % 1004,2 hPa 0,2 l/m 0,8 km/h (0 Bft) SO 143 0 min 107 W/m 8,1 C 4,8 km/h (1 Bft)
26.03.2023 14:00 8,2 C 58 % 1004,2 hPa 0,2 l/m 1,1 km/h (1 Bft) S-SW 194 0 min 109 W/m 8,2 C 6,4 km/h (2 Bft)
26.03.2023 13:50 8,2 C 58 % 1004,3 hPa 0,2 l/m 1,3 km/h (1 Bft) SO 135 0 min 105 W/m 8,2 C 4,8 km/h (1 Bft)
26.03.2023 13:40 8,2 C 58 % 1004,3 hPa 0,0 l/m 1,7 km/h (1 Bft) S-SW 207 0 min 113 W/m 8,2 C 4,8 km/h (1 Bft)
26.03.2023 13:30 8,4 C 58 % 1004,3 hPa 0,2 l/m 1,1 km/h (1 Bft) S 191 0 min 130 W/m 8,4 C 4,8 km/h (1 Bft)
26.03.2023 13:20 8,4 C 58 % 1004,3 hPa 0,0 l/m 0,9 km/h (0 Bft) SW 220 0 min 144 W/m 8,4 C 4,8 km/h (1 Bft)
26.03.2023 13:10 8,4 C 58 % 1004,2 hPa 0,2 l/m 1,7 km/h (1 Bft) SW 224 0 min 141 W/m 8,4 C 4,8 km/h (1 Bft)
26.03.2023 13:00 8,5 C 58 % 1004,3 hPa 0,4 l/m 1,3 km/h (1 Bft) SW 224 0 min 130 W/m 8,5 C 3,2 km/h (1 Bft)
26.03.2023 12:50 8,8 C 58 % 1004,3 hPa 0,2 l/m 3,0 km/h (1 Bft) W-SW 251 0 min 93 W/m 8,8 C 8,0 km/h (2 Bft)
26.03.2023 12:40 9,1 C 57 % 1004,3 hPa 0,0 l/m 1,9 km/h (1 Bft) W-SW 240 0 min 93 W/m 9,1 C 6,4 km/h (2 Bft)
26.03.2023 12:30 9,2 C 57 % 1004,4 hPa 0,0 l/m 0,1 km/h (0 Bft) SO 131 0 min 104 W/m 9,2 C 3,2 km/h (1 Bft)
26.03.2023 12:20 9,2 C 57 % 1004,3 hPa 0,0 l/m 0,7 km/h (0 Bft) O-SO 111 0 min 114 W/m 9,2 C 4,8 km/h (1 Bft)
26.03.2023 12:10 9,2 C 57 % 1004,4 hPa 0,0 l/m 0,7 km/h (0 Bft) O-SO 110 0 min 142 W/m 9,2 C 4,8 km/h (1 Bft)
26.03.2023 12:00 9,1 C 57 % 1004,4 hPa 0,0 l/m 0,1 km/h (0 Bft) S 184 10 min 165 W/m 9,1 C 3,2 km/h (1 Bft)
26.03.2023 11:50 9,1 C 57 % 1004,4 hPa 0,0 l/m 0,2 km/h (0 Bft) S 184 10 min 172 W/m 9,1 C 1,6 km/h (1 Bft)
26.03.2023 11:40 8,9 C 56 % 1004,5 hPa 0,2 l/m 0,8 km/h (0 Bft) S 184 10 min 156 W/m 8,9 C 4,8 km/h (1 Bft)
26.03.2023 11:30 9,1 C 55 % 1004,5 hPa 0,2 l/m 1,6 km/h (1 Bft) S 173 0 min 114 W/m 9,1 C 8,0 km/h (2 Bft)
26.03.2023 11:20 9,2 C 54 % 1004,5 hPa 0,0 l/m 2,0 km/h (1 Bft) S 184 0 min 79 W/m 9,2 C 6,4 km/h (2 Bft)
26.03.2023 11:10 9,3 C 55 % 1004,6 hPa 0,0 l/m 1,8 km/h (1 Bft) SO 131 0 min 104 W/m 9,3 C 4,8 km/h (1 Bft)
26.03.2023 11:00 9,2 C 54 % 1004,8 hPa 0,0 l/m 1,0 km/h (0 Bft) O-SO 120 10 min 155 W/m 9,2 C 4,8 km/h (1 Bft)
26.03.2023 10:50 8,9 C 55 % 1004,9 hPa 0,0 l/m 0,4 km/h (0 Bft) S-SW 192 0 min 134 W/m 8,9 C 1,6 km/h (1 Bft)
26.03.2023 10:40 8,8 C 55 % 1005,0 hPa 0,0 l/m 0,3 km/h (0 Bft) S-SW 192 0 min 102 W/m 8,8 C 3,2 km/h (1 Bft)
26.03.2023 10:30 8,7 C 56 % 1005,1 hPa 0,0 l/m 0,0 km/h (0 Bft) S-SW 207 0 min 139 W/m 8,7 C 0,0 km/h (0 Bft)
26.03.2023 10:20 8,5 C 57 % 1005,1 hPa 0,0 l/m 0,0 km/h (0 Bft) S-SW 207 0 min 132 W/m 8,5 C 0,0 km/h (0 Bft)
26.03.2023 10:10 8,4 C 57 % 1005,1 hPa 0,0 l/m 0,0 km/h (0 Bft) S-SW 207 0 min 104 W/m 8,4 C 0,0 km/h (0 Bft)
26.03.2023 10:00 8,4 C 58 % 1005,4 hPa 0,0 l/m 0,0 km/h (0 Bft) S-SW 207 0 min 107 W/m 8,4 C 0,0 km/h (0 Bft)
26.03.2023 09:50 8,2 C 58 % 1005,5 hPa 0,0 l/m 0,0 km/h (0 Bft) S-SW 207 0 min 114 W/m 8,2 C 0,0 km/h (0 Bft)
26.03.2023 09:40 7,9 C 58 % 1005,3 hPa 0,0 l/m 0,0 km/h (0 Bft) S-SW 207 0 min 105 W/m 7,9 C 0,0 km/h (0 Bft)
26.03.2023 09:30 7,8 C 58 % 1005,5 hPa 0,0 l/m 0,0 km/h (0 Bft) S-SW 207 0 min 46 W/m 7,8 C 0,0 km/h (0 Bft)
26.03.2023 09:20 7,8 C 58 % 1005,7 hPa 0,0 l/m 0,0 km/h (0 Bft) S-SW 207 0 min 49 W/m 7,8 C 0,0 km/h (0 Bft)
26.03.2023 09:10 7,7 C 58 % 1005,8 hPa 0,0 l/m 0,1 km/h (0 Bft) S-SW 207 0 min 40 W/m 7,7 C 1,6 km/h (1 Bft)
26.03.2023 09:00 7,7 C 58 % 1005,8 hPa 0,0 l/m 0,0 km/h (0 Bft) S-SW 207 0 min 35 W/m 7,7 C 0,0 km/h (0 Bft)
26.03.2023 08:50 7,6 C 58 % 1005,9 hPa 0,0 l/m 0,0 km/h (0 Bft) S-SW 207 0 min 32 W/m 7,6 C 0,0 km/h (0 Bft)
26.03.2023 08:40 7,5 C 58 % 1006,0 hPa 0,0 l/m 0,0 km/h (0 Bft) S-SW 207 0 min 21 W/m 7,5 C 0,0 km/h (0 Bft)
26.03.2023 08:30 7,5 C 58 % 1006,0 hPa 0,0 l/m 0,4 km/h (0 Bft) S-SW 207 0 min 18 W/m 7,5 C 3,2 km/h (1 Bft)
26.03.2023 08:20 7,5 C 58 % 1006,1 hPa 0,0 l/m 0,6 km/h (0 Bft) S-SW 212 0 min 12 W/m 7,5 C 4,8 km/h (1 Bft)
26.03.2023 08:10 7,5 C 58 % 1006,2 hPa 0,0 l/m 0,3 km/h (0 Bft) W-SW 246 0 min 16 W/m 7,5 C 3,2 km/h (1 Bft)
26.03.2023 08:00 7,4 C 58 % 1006,2 hPa 0,0 l/m 1,1 km/h (1 Bft) W-SW 246 0 min 23 W/m 7,4 C 4,8 km/h (1 Bft)
26.03.2023 07:50 7,4 C 58 % 1006,3 hPa 0,0 l/m 0,9 km/h (0 Bft) SW 234 0 min 11 W/m 7,4 C 3,2 km/h (1 Bft)
26.03.2023 07:40 7,4 C 58 % 1006,5 hPa 0,0 l/m 1,1 km/h (1 Bft) SW 234 0 min 7 W/m 7,4 C 4,8 km/h (1 Bft)
26.03.2023 07:30 7,4 C 58 % 1006,6 hPa 0,0 l/m 1,1 km/h (1 Bft) W-SW 240 0 min 0 W/m 7,4 C 6,4 km/h (2 Bft)
26.03.2023 07:20 7,4 C 58 % 1006,7 hPa 0,0 l/m 1,4 km/h (1 Bft) SW 221 0 min 0 W/m 7,4 C 4,8 km/h (1 Bft)
26.03.2023 07:10 7,4 C 58 % 1006,8 hPa 0,0 l/m 2,5 km/h (1 Bft) SW 222 0 min 0 W/m 7,4 C 8,0 km/h (2 Bft)
26.03.2023 07:00 7,5 C 58 % 1006,7 hPa 0,0 l/m 3,3 km/h (1 Bft) SW 223 0 min 0 W/m 7,5 C 8,0 km/h (2 Bft)
26.03.2023 06:50 7,4 C 58 % 1006,8 hPa 0,0 l/m 3,5 km/h (1 Bft) W-SW 241 0 min 0 W/m 7,4 C 8,0 km/h (2 Bft)
26.03.2023 06:40 7,4 C 58 % 1007,0 hPa 0,0 l/m 3,9 km/h (1 Bft) W-SW 239 0 min 0 W/m 7,4 C 11,3 km/h (2 Bft)
26.03.2023 06:30 7,4 C 58 % 1007,1 hPa 0,0 l/m 2,4 km/h (1 Bft) W-SW 250 0 min 0 W/m 7,4 C 8,0 km/h (2 Bft)
26.03.2023 06:20 7,4 C 58 % 1007,2 hPa 0,0 l/m 3,7 km/h (1 Bft) SW 219 0 min 0 W/m 7,4 C 8,0 km/h (2 Bft)
26.03.2023 06:10 7,4 C 58 % 1007,2 hPa 0,0 l/m 4,2 km/h (1 Bft) W-SW 244 0 min 0 W/m 7,4 C 9,7 km/h (2 Bft)
26.03.2023 06:00 7,4 C 59 % 1007,3 hPa 0,0 l/m 5,4 km/h (1 Bft) SW 229 0 min 0 W/m 7,4 C 12,9 km/h (3 Bft)
26.03.2023 05:50 7,3 C 59 % 1007,4 hPa 0,0 l/m 6,4 km/h (2 Bft) W-SW 240 0 min 0 W/m 7,3 C 12,9 km/h (3 Bft)
26.03.2023 05:40 7,3 C 59 % 1007,5 hPa 0,0 l/m 5,7 km/h (1 Bft) SW 234 0 min 0 W/m 7,3 C 12,9 km/h (3 Bft)
26.03.2023 05:30 7,3 C 59 % 1007,5 hPa 0,0 l/m 5,3 km/h (1 Bft) SW 229 0 min 0 W/m 7,3 C 11,3 km/h (2 Bft)
26.03.2023 05:20 7,3 C 59 % 1007,5 hPa 0,0 l/m 3,7 km/h (1 Bft) W-SW 239 0 min 0 W/m 7,3 C 8,0 km/h (2 Bft)
26.03.2023 05:10 7,3 C 59 % 1007,6 hPa 0,2 l/m 4,9 km/h (1 Bft) SW 221 0 min 0 W/m 7,3 C 11,3 km/h (2 Bft)
26.03.2023 05:00 7,3 C 59 % 1007,7 hPa 0,0 l/m 5,3 km/h (1 Bft) W 261 0 min 0 W/m 7,3 C 14,5 km/h (3 Bft)
26.03.2023 04:50 7,2 C 59 % 1007,9 hPa 0,0 l/m 5,1 km/h (1 Bft) SW 218 0 min 0 W/m 7,2 C 11,3 km/h (2 Bft)
26.03.2023 04:40 7,2 C 58 % 1007,9 hPa 0,0 l/m 5,0 km/h (1 Bft) W-SW 250 0 min 0 W/m 7,2 C 12,9 km/h (3 Bft)
26.03.2023 04:30 7,2 C 58 % 1008,0 hPa 0,0 l/m 4,3 km/h (1 Bft) SW 220 0 min 0 W/m 7,2 C 11,3 km/h (2 Bft)
26.03.2023 04:20 7,3 C 58 % 1008,2 hPa 0,0 l/m 6,7 km/h (2 Bft) W-SW 250 0 min 0 W/m 7,1 C 16,1 km/h (3 Bft)
26.03.2023 04:10 7,4 C 57 % 1008,2 hPa 0,0 l/m 7,6 km/h (2 Bft) W 262 0 min 0 W/m 6,4 C 16,1 km/h (3 Bft)
26.03.2023 04:00 7,4 C 57 % 1008,3 hPa 0,0 l/m 7,9 km/h (2 Bft) SW 230 0 min 0 W/m 6,2 C 20,9 km/h (4 Bft)
26.03.2023 03:50 7,4 C 57 % 1008,4 hPa 0,0 l/m 8,4 km/h (2 Bft) SW 231 0 min 0 W/m 5,8 C 17,7 km/h (3 Bft)
26.03.2023 03:40 7,3 C 57 % 1008,7 hPa 0,0 l/m 7,8 km/h (2 Bft) SW 236 0 min 0 W/m 6,2 C 16,1 km/h (3 Bft)
26.03.2023 03:30 7,3 C 57 % 1008,7 hPa 0,0 l/m 8,7 km/h (2 Bft) SW 236 0 min 0 W/m 5,5 C 19,3 km/h (3 Bft)
26.03.2023 03:20 7,3 C 56 % 1008,7 hPa 0,0 l/m 9,9 km/h (2 Bft) SW 236 0 min 0 W/m 4,7 C 20,9 km/h (4 Bft)
26.03.2023 03:10 7,3 C 56 % 1008,7 hPa 0,0 l/m 10,5 km/h (2 Bft) SW 229 0 min 0 W/m 4,3 C 20,9 km/h (4 Bft)
26.03.2023 03:00 7,3 C 56 % 1008,7 hPa 0,0 l/m 11,4 km/h (2 Bft) SW 224 0 min 0 W/m 3,8 C 24,1 km/h (4 Bft)
26.03.2023 01:50 7,4 C 56 % 1008,8 hPa 0,0 l/m 12,2 km/h (2 Bft) SW 227 0 min 0 W/m 3,4 C 25,7 km/h (4 Bft)
26.03.2023 01:40 7,3 C 57 % 1008,6 hPa 0,0 l/m 12,1 km/h (2 Bft) W-SW 240 0 min 0 W/m 3,3 C 24,1 km/h (4 Bft)
26.03.2023 01:30 7,4 C 57 % 1008,5 hPa 0,0 l/m 13,3 km/h (3 Bft) S-SW 198 0 min 0 W/m 2,8 C 25,7 km/h (4 Bft)
26.03.2023 01:20 7,3 C 57 % 1008,3 hPa 0,0 l/m 11,2 km/h (2 Bft) SW 215 0 min 0 W/m 3,9 C 22,5 km/h (4 Bft)
26.03.2023 01:10 7,3 C 59 % 1008,3 hPa 0,0 l/m 11,7 km/h (2 Bft) W-SW 244 0 min 0 W/m 3,6 C 24,1 km/h (4 Bft)
26.03.2023 01:00 7,2 C 59 % 1008,2 hPa 0,0 l/m 10,2 km/h (2 Bft) SW 228 0 min 0 W/m 4,4 C 20,9 km/h (4 Bft)
26.03.2023 00:50 7,2 C 60 % 1008,2 hPa 0,0 l/m 9,4 km/h (2 Bft) SW 234 0 min 0 W/m 4,9 C 19,3 km/h (3 Bft)
26.03.2023 00:40 7,2 C 60 % 1008,1 hPa 0,0 l/m 10,8 km/h (2 Bft) W-SW 238 0 min 0 W/m 4,0 C 17,7 km/h (3 Bft)
26.03.2023 00:30 7,2 C 60 % 1008,3 hPa 0,2 l/m 10,7 km/h (2 Bft) W-SW 238 0 min 0 W/m 4,1 C 25,7 km/h (4 Bft)
26.03.2023 00:20 7,2 C 60 % 1008,3 hPa 0,0 l/m 9,2 km/h (2 Bft) NW 312 0 min 0 W/m 5,0 C 22,5 km/h (4 Bft)
26.03.2023 00:10 7,1 C 60 % 1008,2 hPa 0,0 l/m 6,0 km/h (2 Bft) SW 219 0 min 0 W/m 7,1 C 19,3 km/h (3 Bft)
26.03.2023 00:00 7,1 C 60 % 1008,3 hPa 0,0 l/m 4,6 km/h (1 Bft) SW 219 0 min 0 W/m 7,1 C 14,5 km/h (3 Bft)
25.03.2023 23:50 7,1 C 60 % 1008,2 hPa 0,6 l/m 4,9 km/h (1 Bft) SW 223 0 min 0 W/m 7,1 C 11,3 km/h (2 Bft)
25.03.2023 23:40 7,1 C 60 % 1008,1 hPa 0,2 l/m 5,6 km/h (1 Bft) W-SW 251 0 min 0 W/m 7,1 C 11,3 km/h (2 Bft)
25.03.2023 23:30 7,1 C 60 % 1007,8 hPa 0,2 l/m 7,1 km/h (2 Bft) SW 217 0 min 0 W/m 6,5 C 14,5 km/h (3 Bft)
25.03.2023 23:20 7,0 C 60 % 1007,9 hPa 0,0 l/m 6,6 km/h (2 Bft) SW 232 0 min 0 W/m 6,9 C 12,9 km/h (3 Bft)
25.03.2023 23:10 7,0 C 60 % 1007,8 hPa 0,0 l/m 6,6 km/h (2 Bft) W-SW 252 0 min 0 W/m 6,9 C 17,7 km/h (3 Bft)
25.03.2023 23:00 6,9 C 60 % 1007,9 hPa 0,0 l/m 6,7 km/h (2 Bft) SW 221 0 min 0 W/m 6,7 C 16,1 km/h (3 Bft)
25.03.2023 22:50 6,9 C 60 % 1007,9 hPa 0,0 l/m 6,6 km/h (2 Bft) W-SW 242 0 min 0 W/m 6,8 C 12,9 km/h (3 Bft)
25.03.2023 22:40 6,9 C 60 % 1007,8 hPa 0,0 l/m 7,8 km/h (2 Bft) W-SW 252 0 min 0 W/m 5,8 C 17,7 km/h (3 Bft)
25.03.2023 22:30 6,9 C 60 % 1007,8 hPa 0,0 l/m 8,5 km/h (2 Bft) SW 225 0 min 0 W/m 5,2 C 17,7 km/h (3 Bft)
25.03.2023 22:20 6,8 C 60 % 1007,8 hPa 0,0 l/m 7,9 km/h (2 Bft) SW 225 0 min 0 W/m 5,6 C 16,1 km/h (3 Bft)
25.03.2023 22:10 6,8 C 60 % 1007,6 hPa 0,0 l/m 8,5 km/h (2 Bft) W-SW 248 0 min 0 W/m 5,1 C 20,9 km/h (4 Bft)
25.03.2023 22:00 6,7 C 60 % 1007,5 hPa 0,0 l/m 8,0 km/h (2 Bft) SW 229 0 min 0 W/m 5,4 C 16,1 km/h (3 Bft)
25.03.2023 21:50 6,7 C 60 % 1007,5 hPa 0,0 l/m 8,6 km/h (2 Bft) SW 225 0 min 0 W/m 4,9 C 17,7 km/h (3 Bft)
25.03.2023 21:40 6,6 C 60 % 1007,2 hPa 0,0 l/m 7,1 km/h (2 Bft) W 263 0 min 0 W/m 6,0 C 16,1 km/h (3 Bft)
25.03.2023 21:30 6,6 C 60 % 1007,4 hPa 0,0 l/m 7,9 km/h (2 Bft) SW 227 0 min 0 W/m 5,4 C 17,7 km/h (3 Bft)
25.03.2023 21:20 6,6 C 60 % 1007,3 hPa 0,0 l/m 9,3 km/h (2 Bft) SW 231 0 min 0 W/m 4,3 C 19,3 km/h (3 Bft)
25.03.2023 21:10 6,6 C 60 % 1007,3 hPa 0,2 l/m 9,0 km/h (2 Bft) W-SW 258 0 min 0 W/m 4,5 C 17,7 km/h (3 Bft)
25.03.2023 21:00 6,5 C 60 % 1007,5 hPa 0,0 l/m 9,7 km/h (2 Bft) W-SW 244 0 min 0 W/m 3,9 C 20,9 km/h (4 Bft)
25.03.2023 20:50 6,4 C 60 % 1007,4 hPa 0,2 l/m 8,3 km/h (2 Bft) W-SW 240 0 min 0 W/m 4,8 C 16,1 km/h (3 Bft)
25.03.2023 20:40 6,3 C 60 % 1007,2 hPa 0,0 l/m 12,1 km/h (2 Bft) SW 216 0 min 0 W/m 2,2 C 27,4 km/h (4 Bft)
25.03.2023 20:30 6,1 C 60 % 1007,5 hPa 0,0 l/m 11,6 km/h (2 Bft) W-SW 252 0 min 0 W/m 2,3 C 27,4 km/h (4 Bft)
25.03.2023 20:20 5,9 C 60 % 1007,1 hPa 0,2 l/m 10,1 km/h (2 Bft) W-SW 248 0 min 0 W/m 3,0 C 22,5 km/h (4 Bft)
25.03.2023 20:10 6,1 C 60 % 1007,1 hPa 0,6 l/m 13,1 km/h (3 Bft) SW 225 0 min 0 W/m 1,4 C 24,1 km/h (4 Bft)
25.03.2023 20:00 6,1 C 60 % 1007,2 hPa 0,4 l/m 11,2 km/h (2 Bft) W-SW 255 0 min 0 W/m 2,5 C 22,5 km/h (4 Bft)
25.03.2023 19:50 5,9 C 60 % 1006,9 hPa 1,4 l/m 11,7 km/h (2 Bft) S 190 0 min 0 W/m 2,0 C 25,7 km/h (4 Bft)
25.03.2023 19:40 6,8 C 60 % 1007,0 hPa 1,0 l/m 10,2 km/h (2 Bft) SW 225 0 min 0 W/m 3,9 C 35,4 km/h (5 Bft)
25.03.2023 19:30 8,8 C 60 % 1005,9 hPa 0,0 l/m 11,4 km/h (2 Bft) SW 222 0 min 0 W/m 5,5 C 25,7 km/h (4 Bft)
25.03.2023 19:20 8,7 C 60 % 1006,1 hPa 0,0 l/m 13,5 km/h (3 Bft) SW 236 0 min 0 W/m 4,3 C 25,7 km/h (4 Bft)
25.03.2023 19:10 8,8 C 60 % 1006,2 hPa 0,0 l/m 13,0 km/h (3 Bft) SW 218 0 min 0 W/m 4,6 C 27,4 km/h (4 Bft)
25.03.2023 19:00 8,9 C 58 % 1006,0 hPa 0,0 l/m 15,1 km/h (3 Bft) W-SW 245 0 min 0 W/m 3,8 C 33,8 km/h (5 Bft)
25.03.2023 18:50 9,3 C 58 % 1006,0 hPa 0,0 l/m 18,1 km/h (3 Bft) SW 220 0 min 0 W/m 3,0 C 35,4 km/h (5 Bft)
25.03.2023 18:40 9,5 C 56 % 1006,0 hPa 0,0 l/m 16,8 km/h (3 Bft) W-SW 243 0 min 0 W/m 3,8 C 37,0 km/h (5 Bft)
25.03.2023 18:30 9,6 C 56 % 1006,0 hPa 0,0 l/m 16,0 km/h (3 Bft) SW 232 0 min 18 W/m 4,2 C 40,2 km/h (6 Bft)
25.03.2023 18:20 9,6 C 56 % 1005,5 hPa 0,0 l/m 14,7 km/h (3 Bft) W-SW 242 0 min 12 W/m 4,8 C 29,0 km/h (5 Bft)
25.03.2023 18:10 9,7 C 56 % 1005,4 hPa 0,0 l/m 15,9 km/h (3 Bft) S-SW 209 0 min 30 W/m 4,4 C 32,2 km/h (5 Bft)
25.03.2023 18:00 9,8 C 56 % 1005,3 hPa 0,0 l/m 15,5 km/h (3 Bft) S-SW 206 0 min 46 W/m 4,7 C 35,4 km/h (5 Bft)
25.03.2023 17:50 9,9 C 56 % 1005,4 hPa 0,0 l/m 15,2 km/h (3 Bft) W-SW 248 0 min 58 W/m 4,9 C 37,0 km/h (5 Bft)
25.03.2023 17:40 10,1 C 55 % 1005,4 hPa 0,0 l/m 13,3 km/h (3 Bft) SW 214 0 min 65 W/m 6,0 C 29,0 km/h (5 Bft)
25.03.2023 17:30 9,8 C 56 % 1005,2 hPa 0,0 l/m 16,3 km/h (3 Bft) W-SW 241 0 min 141 W/m 4,4 C 29,0 km/h (5 Bft)
25.03.2023 17:20 9,8 C 55 % 1005,5 hPa 0,0 l/m 15,9 km/h (3 Bft) W-SW 252 0 min 49 W/m 4,5 C 33,8 km/h (5 Bft)
25.03.2023 17:10 10,1 C 55 % 1005,5 hPa 0,0 l/m 17,1 km/h (3 Bft) SW 236 0 min 88 W/m 4,4 C 33,8 km/h (5 Bft)
25.03.2023 17:00 10,3 C 54 % 1005,3 hPa 0,0 l/m 16,1 km/h (3 Bft) S-SW 211 0 min 69 W/m 5,1 C 33,8 km/h (5 Bft)
_ Min-Zeit 20:20 17:00 16:00 - 08:40 - - - - 20:10 08:40
Minimum _ 5,8 C 54 % 1003,7 hPa - 0,0 km/h (0 Bft) - - - - 1,4 C 0,0 km/h (0 Bft)
_ Max-Zeit 17:00 19:10 01:50 19:50 18:50 - - 11:00 11:50 11:10 18:30
Maximum _ 10,4 C 60 % 1008,8 hPa 1,4 l/m 18,1 km/h
SW (3 Bft)
- - 10 min 172 W/m 9,3 C 40,2 km/h
W (6 Bft)
Durchschnitt _ 7,9 C 58 % 1006,3 hPa #9,2 l/m 6,9 km/h (2 Bft) SW - #1:30 h 105 W/m 6,3 C 15,5 km/h (3 Bft)